createdAt,value
2022-11-14T00:00:34.012Z,4.68
2022-11-14T00:03:23.164Z,4.75
2022-11-14T00:06:10.846Z,4.61
2022-11-14T00:08:58.295Z,4.78
2022-11-14T00:11:45.455Z,4.73
2022-11-14T00:14:33.234Z,4.86
2022-11-14T00:17:20.873Z,4.87
2022-11-14T00:20:12.819Z,4.81
2022-11-14T00:23:00.611Z,4.95
2022-11-14T00:25:48.438Z,5.00
2022-11-14T00:28:35.635Z,4.43
2022-11-14T00:31:23.307Z,4.58
2022-11-14T00:34:10.746Z,4.71
2022-11-14T00:36:59.252Z,4.61
2022-11-14T00:39:46.905Z,4.19
2022-11-14T00:42:34.903Z,4.15
2022-11-14T00:45:22.819Z,4.08
2022-11-14T00:48:10.238Z,3.68
2022-11-14T00:50:57.688Z,3.05
2022-11-14T00:53:46.721Z,2.96
2022-11-14T00:56:34.475Z,2.88
2022-11-14T00:59:21.701Z,3.23
2022-11-14T01:02:09.334Z,3.65
2022-11-14T01:04:56.654Z,3.75
2022-11-14T01:07:44.096Z,3.88
2022-11-14T01:10:33.128Z,3.88
2022-11-14T01:13:20.885Z,3.59
2022-11-14T01:16:09.262Z,3.79
2022-11-14T01:18:56.672Z,3.77
2022-11-14T01:21:43.836Z,3.97
2022-11-14T01:24:32.774Z,4.06
2022-11-14T01:27:21.478Z,3.36
2022-11-14T01:30:10.771Z,3.15
2022-11-14T01:32:58.885Z,3.15
2022-11-14T01:35:46.599Z,3.30
2022-11-14T01:38:34.536Z,3.20
2022-11-14T01:41:22.925Z,3.17
2022-11-14T01:44:16.371Z,3.54
2022-11-14T01:47:04.758Z,3.63
2022-11-14T01:49:55.394Z,3.77
2022-11-14T01:52:43.024Z,3.97
2022-11-14T01:55:30.547Z,3.63
2022-11-14T01:58:18.318Z,3.46
2022-11-14T02:01:07.419Z,3.28
2022-11-14T02:03:57.147Z,3.00
2022-11-14T02:06:46.120Z,3.18
2022-11-14T02:09:37.420Z,3.02
2022-11-14T02:12:25.759Z,3.41
2022-11-14T02:15:14.544Z,3.58
2022-11-14T02:18:03.975Z,3.56
2022-11-14T02:20:53.072Z,3.58
2022-11-14T02:23:40.687Z,3.84
2022-11-14T02:26:30.218Z,3.47
2022-11-14T02:29:21.077Z,3.09
2022-11-14T02:32:10.881Z,2.94
2022-11-14T02:34:58.481Z,2.75
2022-11-14T02:37:47.455Z,2.83
2022-11-14T02:40:34.954Z,2.75
2022-11-14T02:43:22.852Z,2.97
2022-11-14T02:46:10.358Z,3.10
2022-11-14T02:48:57.547Z,3.32
2022-11-14T02:51:44.905Z,3.35
2022-11-14T02:54:33.393Z,3.45
2022-11-14T02:57:20.863Z,3.51
2022-11-14T03:00:14.537Z,3.50
2022-11-14T03:03:02.783Z,3.35
2022-11-14T03:05:52.216Z,3.05
2022-11-14T03:08:39.750Z,2.72
2022-11-14T03:11:28.537Z,2.74
2022-11-14T03:14:16.096Z,3.00
2022-11-14T03:17:03.798Z,3.12
2022-11-14T03:19:51.502Z,3.33
2022-11-14T03:22:38.865Z,3.21
2022-11-14T03:25:26.745Z,3.26
2022-11-14T03:28:15.424Z,3.53
2022-11-14T03:31:04.092Z,3.32
2022-11-14T03:33:51.193Z,3.12
2022-11-14T03:36:38.992Z,3.20
2022-11-14T03:39:26.237Z,3.34
2022-11-14T03:42:14.102Z,3.47
2022-11-14T03:45:03.233Z,3.41
2022-11-14T03:47:50.686Z,3.50
2022-11-14T03:50:38.018Z,3.16
2022-11-14T03:53:25.696Z,3.21
2022-11-14T03:56:12.911Z,3.27
2022-11-14T03:59:00.826Z,3.17
2022-11-14T04:01:50.013Z,3.35
2022-11-14T04:04:37.716Z,3.48
2022-11-14T04:07:25.157Z,3.34
2022-11-14T04:10:12.628Z,3.37
2022-11-14T04:13:00.731Z,4.13
2022-11-14T04:15:48.516Z,3.65
2022-11-14T04:18:37.367Z,3.22
2022-11-14T04:21:25.022Z,3.32
2022-11-14T04:24:12.469Z,2.78
2022-11-14T04:26:59.932Z,2.87
2022-11-14T04:29:47.324Z,3.12
2022-11-14T04:32:34.523Z,3.00
2022-11-14T04:35:23.217Z,3.29
2022-11-14T04:38:11.159Z,3.29
2022-11-14T04:40:58.334Z,3.52
2022-11-14T04:43:50.603Z,3.40
2022-11-14T04:46:38.520Z,3.05
2022-11-14T04:49:26.357Z,2.97
2022-11-14T04:52:14.913Z,3.04
2022-11-14T04:55:02.339Z,2.89
2022-11-14T04:57:54.269Z,2.95
2022-11-14T05:00:41.918Z,2.72
2022-11-14T05:03:29.556Z,2.62
2022-11-14T05:06:16.957Z,2.35
2022-11-14T05:09:05.727Z,1.78
2022-11-14T05:11:53.310Z,2.48
2022-11-14T05:14:40.519Z,2.66
2022-11-14T05:17:28.616Z,2.78
2022-11-14T05:20:15.863Z,2.85
2022-11-14T05:23:03.760Z,2.86
2022-11-14T05:26:01.967Z,2.95
2022-11-14T05:28:49.580Z,2.94
2022-11-14T05:31:37.416Z,3.01
2022-11-14T05:34:24.790Z,2.94
2022-11-14T05:37:12.342Z,2.89
2022-11-14T05:39:59.973Z,2.92
2022-11-14T05:42:48.712Z,2.98
2022-11-14T05:45:36.211Z,3.23
2022-11-14T05:48:23.895Z,3.25
2022-11-14T05:51:13.377Z,3.53
2022-11-14T05:54:00.788Z,3.73
2022-11-14T05:56:48.383Z,3.24
2022-11-14T05:59:37.516Z,3.24
2022-11-14T06:02:24.870Z,2.76
2022-11-14T06:05:12.527Z,2.46
2022-11-14T06:08:00.299Z,1.84
2022-11-14T06:10:47.762Z,1.75
2022-11-14T06:13:36.807Z,1.99
2022-11-14T06:16:25.862Z,2.38
2022-11-14T06:19:13.196Z,2.98
2022-11-14T06:22:00.513Z,3.65
2022-11-14T06:24:49.952Z,4.08
2022-11-14T06:27:37.336Z,4.56
2022-11-14T06:30:24.751Z,4.96
2022-11-14T06:33:13.237Z,5.34
2022-11-14T06:36:00.838Z,5.31
2022-11-14T06:38:48.215Z,5.58
2022-11-14T06:41:35.780Z,6.06
2022-11-14T06:44:29.409Z,6.67
2022-11-14T06:47:18.047Z,7.16
2022-11-14T06:50:08.298Z,7.60
2022-11-14T06:52:58.076Z,7.77
2022-11-14T06:55:55.382Z,7.95
2022-11-14T06:58:44.659Z,8.34
2022-11-14T07:01:32.500Z,8.43
2022-11-14T07:04:19.708Z,8.00
2022-11-14T07:07:08.552Z,7.41
2022-11-14T07:09:58.822Z,7.03
2022-11-14T07:12:46.285Z,6.84
2022-11-14T07:15:33.973Z,6.83
2022-11-14T07:18:21.705Z,7.13
2022-11-14T07:21:09.396Z,8.03
2022-11-14T07:23:59.165Z,8.42
2022-11-14T07:26:47.312Z,9.34
2022-11-14T07:29:35.105Z,9.76
2022-11-14T07:32:22.228Z,10.00
2022-11-14T07:35:09.911Z,10.39
2022-11-14T07:38:03.628Z,10.86
2022-11-14T07:40:59.643Z,11.32
2022-11-14T07:43:47.814Z,12.02
2022-11-14T07:46:35.044Z,11.74
2022-11-14T07:49:22.593Z,11.70
2022-11-14T07:52:09.757Z,11.31
2022-11-14T07:54:57.314Z,9.88
2022-11-14T07:57:49.239Z,11.37
2022-11-14T08:00:37.062Z,12.27
2022-11-14T08:03:24.632Z,13.17
2022-11-14T08:06:13.462Z,13.16
2022-11-14T08:09:00.939Z,13.19
2022-11-14T08:11:51.804Z,13.39
2022-11-14T08:14:40.828Z,13.77
2022-11-14T08:17:28.494Z,13.84
2022-11-14T08:20:15.569Z,14.42
2022-11-14T08:23:05.060Z,14.33
2022-11-14T08:25:52.346Z,14.44
2022-11-14T08:28:39.886Z,15.33
2022-11-14T08:31:29.072Z,15.22
2022-11-14T08:34:16.738Z,15.59
2022-11-14T08:37:04.618Z,15.61
2022-11-14T08:39:52.198Z,15.49
2022-11-14T08:42:39.447Z,16.40
2022-11-14T08:45:26.693Z,16.68
2022-11-14T08:48:15.517Z,17.18
2022-11-14T08:51:06.658Z,17.49
2022-11-14T08:53:54.217Z,16.38
2022-11-14T08:56:41.680Z,15.64
2022-11-14T08:59:29.594Z,14.55
2022-11-14T09:02:18.525Z,14.91
2022-11-14T09:05:10.287Z,17.33
2022-11-14T09:07:57.452Z,16.11
2022-11-14T09:10:45.236Z,17.29
2022-11-14T09:13:33.524Z,17.22
2022-11-14T09:16:21.162Z,15.77
2022-11-14T09:19:08.444Z,15.81
2022-11-14T09:21:57.078Z,17.18
2022-11-14T09:24:47.069Z,16.69
2022-11-14T09:27:34.593Z,17.22
2022-11-14T09:30:22.672Z,18.40
2022-11-14T09:33:11.945Z,18.46
2022-11-14T09:36:00.106Z,16.99
2022-11-14T09:38:49.743Z,17.79
2022-11-14T09:41:54.432Z,19.17
2022-11-14T09:44:53.493Z,17.23
2022-11-14T09:47:45.442Z,17.50
2022-11-14T09:50:37.209Z,17.42
2022-11-14T09:53:32.574Z,17.58
2022-11-14T09:56:25.916Z,18.05
2022-11-14T09:59:14.451Z,17.42
2022-11-14T10:02:14.511Z,18.15
2022-11-14T10:05:17.721Z,18.70
2022-11-14T10:08:17.910Z,18.48
2022-11-14T10:11:10.410Z,18.59
2022-11-14T10:14:25.236Z,17.97
2022-11-14T10:17:25.187Z,17.38
2022-11-14T10:20:19.282Z,18.81
2022-11-14T10:23:30.587Z,18.70
2022-11-14T10:26:25.855Z,17.28
2022-11-14T10:29:49.437Z,17.55
2022-11-14T10:33:04.143Z,18.29
2022-11-14T10:35:57.811Z,19.47
2022-11-14T10:38:52.961Z,20.40
2022-11-14T10:41:56.702Z,19.59
2022-11-14T10:44:58.521Z,19.24
2022-11-14T10:47:49.973Z,19.31
2022-11-14T10:50:45.272Z,19.29
2022-11-14T10:53:50.589Z,19.25
2022-11-14T10:56:47.755Z,18.45
2022-11-14T10:59:35.247Z,17.89
2022-11-14T11:02:24.245Z,17.31
2022-11-14T11:05:17.787Z,17.74
2022-11-14T11:08:42.803Z,18.49
2022-11-14T11:11:30.731Z,18.93
2022-11-14T11:14:19.785Z,18.15
2022-11-14T11:17:18.713Z,19.84
2022-11-14T11:20:27.671Z,19.55
2022-11-14T11:23:21.317Z,18.55
2022-11-14T11:26:23.794Z,17.66
2022-11-14T11:29:18.407Z,18.49
2022-11-14T11:32:06.577Z,20.06
2022-11-14T11:34:53.927Z,20.45
2022-11-14T11:37:45.678Z,20.56
2022-11-14T11:40:33.196Z,20.33
2022-11-14T11:43:38.787Z,19.41
2022-11-14T11:46:43.726Z,20.76
2022-11-14T11:49:39.308Z,21.43
2022-11-14T11:52:33.953Z,21.26
2022-11-14T11:55:27.290Z,21.02
2022-11-14T11:58:22.224Z,19.83
2022-11-14T12:01:12.069Z,20.32
2022-11-14T12:03:59.616Z,21.72
2022-11-14T12:06:52.802Z,21.52
2022-11-14T12:10:09.441Z,20.71
2022-11-14T12:13:15.775Z,20.23
2022-11-14T12:16:18.658Z,21.07
2022-11-14T12:19:49.826Z,21.36
2022-11-14T12:22:54.247Z,21.71
2022-11-14T12:26:02.148Z,21.08
2022-11-14T12:29:06.914Z,20.35
2022-11-14T12:32:00.720Z,20.74
2022-11-14T12:34:49.452Z,21.12
2022-11-14T12:37:44.537Z,21.24
2022-11-14T12:40:34.707Z,20.70
2022-11-14T12:43:36.816Z,19.50
2022-11-14T12:46:26.191Z,19.69
2022-11-14T12:49:38.300Z,19.50
2022-11-14T12:52:48.895Z,18.60
2022-11-14T12:56:14.544Z,19.06
2022-11-14T12:59:29.097Z,18.64
2022-11-14T13:02:52.174Z,19.36
2022-11-14T13:05:55.306Z,19.57
2022-11-14T13:09:04.199Z,20.04
2022-11-14T13:12:09.681Z,19.73
2022-11-14T13:15:16.461Z,19.77
2022-11-14T13:18:23.139Z,19.25
2022-11-14T13:21:44.785Z,18.42
2022-11-14T13:25:06.243Z,18.17
2022-11-14T13:28:19.043Z,18.60
2022-11-14T13:31:19.481Z,18.50
2022-11-14T13:34:36.190Z,18.61
2022-11-14T13:37:49.736Z,18.29
2022-11-14T13:40:44.926Z,18.24
2022-11-14T13:43:48.923Z,17.80
2022-11-14T13:46:55.106Z,18.28
2022-11-14T13:50:00.657Z,18.24
2022-11-14T13:52:49.783Z,18.88
2022-11-14T13:55:47.552Z,18.65
2022-11-14T13:58:59.176Z,17.73
2022-11-14T14:02:04.667Z,17.93
2022-11-14T14:05:04.313Z,17.43
2022-11-14T14:08:08.019Z,17.76
2022-11-14T14:11:07.005Z,17.45
2022-11-14T14:14:02.011Z,17.28
2022-11-14T14:16:55.613Z,17.36
2022-11-14T14:19:57.306Z,17.47
2022-11-14T14:22:54.620Z,17.82
2022-11-14T14:25:50.279Z,18.00
2022-11-14T14:28:49.933Z,17.98
2022-11-14T14:31:39.618Z,17.81
2022-11-14T14:34:30.538Z,17.77
2022-11-14T14:37:20.172Z,17.28
2022-11-14T14:40:23.658Z,17.03
2022-11-14T14:43:24.995Z,17.19
2022-11-14T14:46:13.589Z,16.49
2022-11-14T14:49:04.314Z,15.84
2022-11-14T14:51:57.141Z,16.13
2022-11-14T14:54:56.040Z,15.95
2022-11-14T14:57:44.829Z,16.34
2022-11-14T15:00:32.038Z,16.60
2022-11-14T15:03:19.825Z,16.46
2022-11-14T15:06:18.958Z,16.50
2022-11-14T15:09:11.867Z,16.35
2022-11-14T15:12:01.999Z,16.32
2022-11-14T15:14:50.861Z,16.47
2022-11-14T15:17:38.428Z,16.27
2022-11-14T15:20:27.594Z,16.27
2022-11-14T15:23:22.244Z,16.12
2022-11-14T15:26:16.627Z,16.00
2022-11-14T15:29:12.849Z,15.39
2022-11-14T15:32:02.854Z,15.19
2022-11-14T15:35:09.321Z,14.69
2022-11-14T15:41:23.571Z,14.99
2022-11-14T15:44:30.380Z,14.81
2022-11-14T15:47:24.654Z,14.95
2022-11-14T15:50:30.096Z,14.57
2022-11-14T15:53:23.160Z,14.69
2022-11-14T15:56:13.980Z,14.60
2022-11-14T15:59:02.004Z,14.47
2022-11-14T16:01:53.337Z,14.26
2022-11-14T16:04:47.261Z,14.06
2022-11-14T16:07:34.991Z,14.10
2022-11-14T16:10:24.187Z,14.03
2022-11-14T16:13:11.822Z,14.16
2022-11-14T16:15:59.408Z,13.60
2022-11-14T16:18:47.030Z,13.80
2022-11-14T16:21:35.877Z,13.60
2022-11-14T16:24:26.670Z,13.21
2022-11-14T16:27:15.902Z,13.20
2022-11-14T16:30:04.571Z,13.27
2022-11-14T16:32:53.470Z,13.27
2022-11-14T16:35:41.165Z,13.10
2022-11-14T16:38:30.127Z,12.99
2022-11-14T16:41:18.484Z,12.86
2022-11-14T16:44:06.707Z,13.19
2022-11-14T16:46:54.031Z,13.20
2022-11-14T16:49:41.497Z,12.99
2022-11-14T16:52:29.794Z,12.97
2022-11-14T16:55:18.873Z,13.03
2022-11-14T16:58:06.490Z,12.80
2022-11-14T17:00:54.443Z,12.81
2022-11-14T17:03:42.155Z,12.86
2022-11-14T17:06:30.035Z,12.73
2022-11-14T17:09:17.750Z,12.73
2022-11-14T17:12:08.017Z,12.44
2022-11-14T17:14:55.656Z,12.39
2022-11-14T17:17:46.320Z,12.02
2022-11-14T17:20:33.934Z,11.91
2022-11-14T17:23:21.552Z,11.92
2022-11-14T17:26:12.867Z,11.89
2022-11-14T17:29:02.387Z,11.52
2022-11-14T17:31:49.657Z,11.40
2022-11-14T17:34:36.922Z,11.31
2022-11-14T17:37:24.512Z,11.39
2022-11-14T17:40:15.495Z,11.35
2022-11-14T17:43:03.600Z,11.44
2022-11-14T17:45:57.203Z,11.48
2022-11-14T17:48:44.682Z,11.31
2022-11-14T17:51:32.692Z,11.32
2022-11-14T17:54:20.211Z,11.34
2022-11-14T17:57:08.124Z,11.25
2022-11-14T17:59:55.721Z,11.32
2022-11-14T18:02:44.969Z,11.48
2022-11-14T18:05:32.619Z,11.57
2022-11-14T18:08:20.255Z,11.47
2022-11-14T18:11:10.040Z,11.37
2022-11-14T18:13:57.293Z,11.23
2022-11-14T18:17:11.198Z,11.20
2022-11-14T18:19:56.219Z,10.89
2022-11-14T18:22:44.118Z,11.01
2022-11-14T18:25:32.078Z,10.72
2022-11-14T18:28:20.113Z,10.37
2022-11-14T18:31:10.959Z,10.56
2022-11-14T18:33:59.819Z,10.55
2022-11-14T18:36:49.118Z,10.46
2022-11-14T18:39:36.799Z,10.64
2022-11-14T18:42:24.801Z,10.81
2022-11-14T18:45:12.320Z,10.69
2022-11-14T18:48:00.015Z,10.84
2022-11-14T18:50:48.491Z,10.72
2022-11-14T18:53:37.970Z,10.55
2022-11-14T18:56:25.567Z,10.40
2022-11-14T18:59:13.276Z,10.24
2022-11-14T19:02:00.700Z,10.15
2022-11-14T19:04:48.459Z,10.56
2022-11-14T19:07:35.862Z,11.00
2022-11-14T19:10:24.606Z,11.11
2022-11-14T19:13:12.423Z,10.47
2022-11-14T19:16:03.980Z,10.28
2022-11-14T19:18:51.313Z,9.98
2022-11-14T19:21:39.700Z,-145.44
2022-11-14T19:24:27.064Z,-145.44
2022-11-14T19:27:15.944Z,-145.44
2022-11-14T19:30:03.889Z,-145.44
2022-11-14T19:32:51.243Z,-145.44
2022-11-14T19:35:39.509Z,-145.44
2022-11-14T19:38:27.094Z,-145.44
2022-11-14T19:41:16.533Z,-145.44
2022-11-14T19:44:06.385Z,-145.44
2022-11-14T19:46:53.921Z,-145.44
2022-11-14T19:49:42.835Z,-145.44
2022-11-14T19:52:30.288Z,-145.44
2022-11-14T19:55:17.934Z,-145.44
2022-11-14T19:58:05.253Z,-145.44
2022-11-14T20:00:53.981Z,-145.44
2022-11-14T20:03:41.982Z,8.97
2022-11-14T20:06:32.521Z,8.51
2022-11-14T20:09:19.660Z,8.54
2022-11-14T20:12:07.023Z,8.56
2022-11-14T20:15:00.442Z,8.42
2022-11-14T20:17:49.860Z,8.45
2022-11-14T20:20:37.324Z,8.54
2022-11-14T20:23:24.934Z,8.76
2022-11-14T20:26:13.397Z,9.00
2022-11-14T20:29:00.664Z,8.77
2022-11-14T20:31:48.110Z,8.79
2022-11-14T20:34:36.770Z,8.66
2022-11-14T20:37:24.535Z,8.77
2022-11-14T20:40:13.495Z,8.98
2022-11-14T20:43:01.355Z,9.03
2022-11-14T20:45:56.715Z,8.91
2022-11-14T20:48:44.431Z,8.60
2022-11-14T20:51:33.461Z,8.74
2022-11-14T20:54:20.819Z,8.76
2022-11-14T20:57:08.427Z,8.62
2022-11-14T20:59:55.769Z,8.61
2022-11-14T21:02:43.288Z,8.63
2022-11-14T21:05:30.909Z,8.53
2022-11-14T21:08:20.464Z,8.63
2022-11-14T21:11:10.137Z,8.45
2022-11-14T21:13:57.787Z,8.63
2022-11-14T21:16:45.161Z,8.18
2022-11-14T21:19:32.566Z,8.18
2022-11-14T21:22:20.132Z,8.18
2022-11-14T21:25:09.912Z,7.93
2022-11-14T21:27:57.729Z,7.85
2022-11-14T21:30:45.004Z,7.93
2022-11-14T21:33:33.638Z,7.97
2022-11-14T21:39:28.806Z,7.68
2022-11-14T21:42:18.857Z,7.51
2022-11-14T21:45:07.619Z,7.55
2022-11-14T21:47:55.189Z,7.72
2022-11-14T21:50:42.536Z,7.70
2022-11-14T21:53:30.508Z,7.96
2022-11-14T21:56:19.864Z,7.80
2022-11-14T21:59:15.896Z,7.89
2022-11-14T22:02:21.259Z,7.51
2022-11-14T22:05:09.280Z,7.43
2022-11-14T22:07:56.498Z,6.90
2022-11-14T22:10:43.579Z,6.95
2022-11-14T22:13:32.681Z,7.00
2022-11-14T22:16:22.329Z,6.89
2022-11-14T22:19:09.836Z,6.93
2022-11-14T22:21:57.249Z,6.92
2022-11-14T22:24:44.662Z,6.95
2022-11-14T22:27:32.044Z,6.82
2022-11-14T22:30:19.600Z,6.93
2022-11-14T22:33:08.409Z,6.81
2022-11-14T22:35:55.491Z,6.86
2022-11-14T22:38:43.745Z,6.71
2022-11-14T22:41:33.426Z,6.78
2022-11-14T22:44:21.027Z,6.75
2022-11-14T22:47:08.438Z,6.98
2022-11-14T22:49:57.509Z,7.02
2022-11-14T22:52:44.994Z,7.03
2022-11-14T22:55:32.425Z,6.96
2022-11-14T22:58:19.789Z,6.89
2022-11-14T23:01:13.478Z,6.93
2022-11-14T23:04:02.392Z,6.90
2022-11-14T23:06:51.402Z,6.82
2022-11-14T23:09:38.941Z,6.54
2022-11-14T23:12:26.181Z,6.48
2022-11-14T23:15:13.896Z,6.40
2022-11-14T23:18:02.111Z,6.21
2022-11-14T23:20:49.594Z,6.17
2022-11-14T23:23:38.553Z,5.34
2022-11-14T23:26:26.734Z,4.77
2022-11-14T23:29:15.158Z,4.88
2022-11-14T23:32:02.843Z,5.11
2022-11-14T23:34:50.233Z,5.19
2022-11-14T23:37:37.589Z,5.22
2022-11-14T23:40:26.314Z,4.31
2022-11-14T23:43:13.817Z,4.70
2022-11-14T23:46:01.129Z,4.69
2022-11-14T23:48:48.841Z,5.00
2022-11-14T23:51:36.486Z,5.13
2022-11-14T23:54:23.940Z,5.21
2022-11-14T23:57:12.713Z,5.36
